createdAt,value
2019-02-19T00:00:44.096Z,14.60
2019-02-19T00:03:31.605Z,15.73
2019-02-19T00:06:19.628Z,15.37
2019-02-19T00:09:07.652Z,15.87
2019-02-19T00:11:55.624Z,15.90
2019-02-19T00:14:43.528Z,15.80
2019-02-19T00:17:31.332Z,16.80
2019-02-19T00:20:18.913Z,16.53
2019-02-19T00:23:06.685Z,16.20
2019-02-19T00:25:54.364Z,16.07
2019-02-19T00:28:41.968Z,15.03
2019-02-19T00:31:29.749Z,16.73
2019-02-19T00:34:17.524Z,14.67
2019-02-19T00:37:05.690Z,17.13
2019-02-19T00:39:53.497Z,14.90
2019-02-19T00:42:41.302Z,16.03
2019-02-19T00:45:29.234Z,16.30
2019-02-19T00:48:17.160Z,15.90
2019-02-19T00:51:04.989Z,17.13
2019-02-19T00:53:52.765Z,16.80
2019-02-19T00:56:40.768Z,17.43
2019-02-19T00:59:28.847Z,16.17
2019-02-19T01:02:16.738Z,15.97
2019-02-19T01:05:05.305Z,16.57
2019-02-19T01:07:53.365Z,15.40
2019-02-19T01:10:41.280Z,14.73
2019-02-19T01:13:28.949Z,15.70
2019-02-19T01:16:16.936Z,15.77
2019-02-19T01:19:04.748Z,15.43
2019-02-19T01:21:52.964Z,15.03
2019-02-19T01:24:40.593Z,16.00
2019-02-19T01:27:28.320Z,15.63
2019-02-19T01:30:16.128Z,15.77
2019-02-19T01:33:03.916Z,14.90
2019-02-19T01:35:51.693Z,14.93
2019-02-19T01:38:39.624Z,15.57
2019-02-19T01:41:27.529Z,15.90
2019-02-19T01:44:15.581Z,16.13
2019-02-19T01:47:03.162Z,15.47
2019-02-19T01:49:50.769Z,14.83
2019-02-19T01:52:38.795Z,15.70
2019-02-19T01:55:26.741Z,17.23
2019-02-19T01:58:14.628Z,17.17
2019-02-19T02:01:02.284Z,16.90
2019-02-19T02:03:50.260Z,16.07
2019-02-19T02:06:37.968Z,16.43
2019-02-19T02:09:25.705Z,15.83
2019-02-19T02:12:13.505Z,16.20
2019-02-19T02:15:01.504Z,16.37
2019-02-19T02:17:49.365Z,16.23
2019-02-19T02:20:36.990Z,17.17
2019-02-19T02:23:24.927Z,15.60
2019-02-19T02:26:12.660Z,16.07
2019-02-19T02:29:00.394Z,15.10
2019-02-19T02:31:48.337Z,15.93
2019-02-19T02:34:36.088Z,15.67
2019-02-19T02:37:24.233Z,15.13
2019-02-19T02:40:12.030Z,14.87
2019-02-19T02:42:59.563Z,15.00
2019-02-19T02:45:53.556Z,14.00
2019-02-19T02:48:36.785Z,14.40
2019-02-19T02:51:24.553Z,14.00
2019-02-19T02:54:12.254Z,12.97
2019-02-19T02:57:00.170Z,13.30
2019-02-19T02:59:48.169Z,13.70
2019-02-19T03:02:35.846Z,13.87
2019-02-19T03:05:25.371Z,13.10
2019-02-19T03:08:13.711Z,13.27
2019-02-19T03:11:01.754Z,13.63
2019-02-19T03:13:49.792Z,12.17
2019-02-19T03:16:37.774Z,13.20
2019-02-19T03:19:25.564Z,13.03
2019-02-19T03:22:13.611Z,13.10
2019-02-19T03:25:01.748Z,13.67
2019-02-19T03:27:49.813Z,13.37
2019-02-19T03:30:37.546Z,13.27
2019-02-19T03:33:25.275Z,15.03
2019-02-19T03:36:13.008Z,14.23
2019-02-19T03:39:00.876Z,13.90
2019-02-19T03:41:48.929Z,14.93
2019-02-19T03:44:36.623Z,13.73
2019-02-19T03:47:24.650Z,14.20
2019-02-19T03:50:12.410Z,15.17
2019-02-19T03:53:00.453Z,15.40
2019-02-19T03:55:48.530Z,15.20
2019-02-19T03:58:36.704Z,14.97
2019-02-19T04:01:24.389Z,15.33
2019-02-19T04:04:12.258Z,14.83
2019-02-19T04:06:59.866Z,15.13
2019-02-19T04:09:49.184Z,15.80
2019-02-19T04:12:37.070Z,14.93
2019-02-19T04:15:24.817Z,15.43
2019-02-19T04:18:12.650Z,16.13
2019-02-19T04:21:00.379Z,15.13
2019-02-19T04:23:48.273Z,14.97
2019-02-19T04:26:36.437Z,14.50
2019-02-19T04:29:24.314Z,14.73
2019-02-19T04:32:12.114Z,13.80
2019-02-19T04:34:59.958Z,14.47
2019-02-19T04:37:47.585Z,14.53
2019-02-19T04:40:35.448Z,14.50
2019-02-19T04:43:23.398Z,14.17
2019-02-19T04:46:11.377Z,15.20
2019-02-19T04:48:59.323Z,14.13
2019-02-19T04:51:47.334Z,14.10
2019-02-19T04:54:35.189Z,14.63
2019-02-19T04:57:22.916Z,13.73
2019-02-19T05:00:14.422Z,14.13
2019-02-19T05:03:02.186Z,13.83
2019-02-19T05:05:50.042Z,15.13
2019-02-19T05:08:37.817Z,15.03
2019-02-19T05:11:25.443Z,14.60
2019-02-19T05:14:13.428Z,14.80
2019-02-19T05:17:01.621Z,15.00
2019-02-19T05:19:49.310Z,14.77
2019-02-19T05:22:37.084Z,14.73
2019-02-19T05:25:24.986Z,14.77
2019-02-19T05:28:13.056Z,14.30
2019-02-19T05:31:00.848Z,14.87
2019-02-19T05:33:48.762Z,14.23
2019-02-19T05:36:36.562Z,15.63
2019-02-19T05:39:24.697Z,13.40
2019-02-19T05:42:12.620Z,15.10
2019-02-19T05:45:00.554Z,14.33
2019-02-19T05:47:48.306Z,14.70
2019-02-19T05:50:36.410Z,19.80
2019-02-19T05:53:24.021Z,19.43
2019-02-19T05:56:11.977Z,20.20
2019-02-19T05:58:59.903Z,21.83
2019-02-19T06:01:47.836Z,22.23
2019-02-19T06:04:35.337Z,23.87
2019-02-19T06:07:23.014Z,36.27
2019-02-19T06:10:12.590Z,29.67
2019-02-19T06:13:00.561Z,27.03
2019-02-19T06:15:48.177Z,25.30
2019-02-19T06:18:35.831Z,23.57
2019-02-19T06:21:23.391Z,20.93
2019-02-19T06:24:11.329Z,19.93
2019-02-19T06:26:58.958Z,20.47
2019-02-19T06:29:47.005Z,20.30
2019-02-19T06:32:34.685Z,20.03
2019-02-19T06:35:22.773Z,20.30
2019-02-19T06:38:10.269Z,20.87
2019-02-19T06:40:58.023Z,20.07
2019-02-19T06:43:45.873Z,20.53
2019-02-19T06:46:33.406Z,26.20
2019-02-19T06:49:21.310Z,29.87
2019-02-19T06:52:09.408Z,26.83
2019-02-19T06:54:57.007Z,22.10
2019-02-19T06:57:45.170Z,21.10
2019-02-19T07:00:32.836Z,21.03
2019-02-19T07:03:22.437Z,20.83
2019-02-19T07:06:10.317Z,20.83
2019-02-19T07:08:58.114Z,18.63
2019-02-19T07:11:45.994Z,18.97
2019-02-19T07:14:33.952Z,18.80
2019-02-19T07:17:21.970Z,18.67
2019-02-19T07:20:10.608Z,18.43
2019-02-19T07:22:58.106Z,19.07
2019-02-19T07:25:46.092Z,19.47
2019-02-19T07:28:34.228Z,19.57
2019-02-19T07:31:22.332Z,21.17
2019-02-19T07:34:10.060Z,21.90
2019-02-19T07:36:57.861Z,20.03
2019-02-19T07:39:46.109Z,19.60
2019-02-19T07:42:35.551Z,19.73
2019-02-19T07:45:23.185Z,19.13
2019-02-19T07:48:10.910Z,16.73
2019-02-19T07:50:58.578Z,16.73
2019-02-19T07:53:46.647Z,16.30
2019-02-19T07:56:34.331Z,17.20
2019-02-19T07:59:23.192Z,16.53
2019-02-19T08:02:10.957Z,15.03
2019-02-19T08:04:58.733Z,16.10
2019-02-19T08:07:46.607Z,16.77
2019-02-19T08:10:34.406Z,16.27
2019-02-19T08:13:22.243Z,16.20
2019-02-19T08:16:10.433Z,15.70
2019-02-19T08:18:58.242Z,15.30
2019-02-19T08:21:45.864Z,16.20
2019-02-19T08:24:33.670Z,15.73
2019-02-19T08:27:21.575Z,14.53
2019-02-19T08:30:11.233Z,12.97
2019-02-19T08:32:59.139Z,12.47
2019-02-19T08:35:47.091Z,13.57
2019-02-19T08:38:35.211Z,15.17
2019-02-19T08:41:22.952Z,14.50
2019-02-19T08:44:10.618Z,14.53
2019-02-19T08:46:58.608Z,13.63
2019-02-19T08:49:46.814Z,13.40
2019-02-19T08:52:34.644Z,14.20
2019-02-19T08:55:22.177Z,14.10
2019-02-19T08:58:09.744Z,14.77
2019-02-19T09:00:57.825Z,15.40
2019-02-19T09:03:45.812Z,15.37
2019-02-19T09:06:34.518Z,16.43
2019-02-19T09:09:22.447Z,15.80
2019-02-19T09:12:11.591Z,14.53
2019-02-19T09:14:59.408Z,15.00
2019-02-19T09:17:52.045Z,14.10
2019-02-19T09:20:37.294Z,15.17
2019-02-19T09:23:25.100Z,16.23
2019-02-19T09:26:13.228Z,14.60
2019-02-19T09:29:01.181Z,15.67
2019-02-19T09:31:49.149Z,16.43
2019-02-19T09:34:36.899Z,15.10
2019-02-19T09:37:25.142Z,15.10
2019-02-19T09:40:13.077Z,14.80
2019-02-19T09:43:01.083Z,14.77
2019-02-19T09:45:50.080Z,14.57
2019-02-19T09:48:38.065Z,15.00
2019-02-19T09:51:25.718Z,15.87
2019-02-19T09:54:13.642Z,15.77
2019-02-19T09:57:01.221Z,15.07
2019-02-19T09:59:49.381Z,14.43
2019-02-19T10:02:37.221Z,14.90
2019-02-19T10:05:24.921Z,13.50
2019-02-19T10:08:12.733Z,13.50
2019-02-19T10:11:00.641Z,12.90
2019-02-19T10:13:48.289Z,12.43
2019-02-19T10:16:41.578Z,12.17
2019-02-19T10:19:26.086Z,12.23
2019-02-19T10:22:14.012Z,13.00
2019-02-19T10:25:01.839Z,12.23
2019-02-19T10:27:49.424Z,13.57
2019-02-19T10:30:37.156Z,13.53
2019-02-19T10:33:25.310Z,14.30
2019-02-19T10:36:13.161Z,13.50
2019-02-19T10:39:01.262Z,11.77
2019-02-19T10:41:56.461Z,10.70
2019-02-19T10:44:44.493Z,9.10
2019-02-19T10:47:32.458Z,9.10
2019-02-19T10:50:20.525Z,8.77
2019-02-19T10:53:08.134Z,9.07
2019-02-19T10:55:56.032Z,8.90
2019-02-19T10:58:43.988Z,8.50
2019-02-19T11:01:31.813Z,7.80
2019-02-19T11:04:19.770Z,7.40
2019-02-19T11:07:07.573Z,6.17
2019-02-19T11:09:55.228Z,6.00
2019-02-19T11:12:43.237Z,5.93
2019-02-19T11:15:30.866Z,5.77
2019-02-19T11:18:27.872Z,5.90
2019-02-19T11:21:08.349Z,6.30
2019-02-19T11:23:56.821Z,6.50
2019-02-19T11:26:44.869Z,6.73
2019-02-19T11:29:32.587Z,6.80
2019-02-19T11:32:21.083Z,6.70
2019-02-19T11:35:09.705Z,7.20
2019-02-19T11:37:57.881Z,6.37
2019-02-19T11:40:45.753Z,6.83
2019-02-19T11:43:35.476Z,10.23
2019-02-19T11:46:23.193Z,11.33
2019-02-19T11:49:11.187Z,6.93
2019-02-19T11:51:58.998Z,6.77
2019-02-19T11:54:46.930Z,6.97
2019-02-19T11:57:34.897Z,7.40
2019-02-19T12:00:36.875Z,7.10
2019-02-19T12:03:24.674Z,7.23
2019-02-19T12:06:12.294Z,7.07
2019-02-19T12:09:00.052Z,7.27
2019-02-19T12:11:47.881Z,7.57
2019-02-19T12:14:35.827Z,7.43
2019-02-19T12:17:23.413Z,7.20
2019-02-19T12:20:13.917Z,7.60
2019-02-19T12:23:01.929Z,7.17
2019-02-19T12:25:49.470Z,7.70
2019-02-19T12:28:37.103Z,7.50
2019-02-19T12:31:24.951Z,8.10
2019-02-19T12:34:12.808Z,8.20
2019-02-19T12:37:00.629Z,8.17
2019-02-19T12:39:48.616Z,7.60
2019-02-19T12:42:36.589Z,8.40
2019-02-19T12:45:24.553Z,8.90
2019-02-19T12:48:12.538Z,8.50
2019-02-19T12:51:00.526Z,8.87
2019-02-19T12:53:48.537Z,9.37
2019-02-19T12:56:36.607Z,9.13
2019-02-19T12:59:24.235Z,8.87
2019-02-19T13:02:11.871Z,9.00
2019-02-19T13:04:59.989Z,8.27
2019-02-19T13:07:47.694Z,8.50
2019-02-19T13:10:35.597Z,9.10
2019-02-19T13:13:23.389Z,9.07
2019-02-19T13:16:11.294Z,8.87
2019-02-19T13:19:03.471Z,9.00
2019-02-19T13:21:49.489Z,9.80
2019-02-19T13:24:37.443Z,8.60
2019-02-19T13:27:25.358Z,9.30
2019-02-19T13:30:15.913Z,8.87
2019-02-19T13:33:04.190Z,9.27
2019-02-19T13:35:52.119Z,9.77
2019-02-19T13:38:39.897Z,9.73
2019-02-19T13:41:27.678Z,9.47
2019-02-19T13:44:15.360Z,9.87
2019-02-19T13:47:03.038Z,9.90
2019-02-19T13:49:50.616Z,9.57
2019-02-19T13:52:40.046Z,9.50
2019-02-19T13:55:29.838Z,9.00
2019-02-19T13:58:17.929Z,10.40
2019-02-19T14:01:05.846Z,10.27
2019-02-19T14:03:53.758Z,10.70
2019-02-19T14:06:41.851Z,10.57
2019-02-19T14:09:29.762Z,10.17
2019-02-19T14:12:17.314Z,10.20
2019-02-19T14:15:09.398Z,10.00
2019-02-19T14:17:57.601Z,10.30
2019-02-19T14:20:52.996Z,10.20
2019-02-19T14:23:59.189Z,10.60
2019-02-19T14:27:05.143Z,9.80
2019-02-19T14:30:03.790Z,10.10
2019-02-19T14:32:56.733Z,9.33
2019-02-19T14:36:01.043Z,11.40
2019-02-19T14:38:50.864Z,10.40
2019-02-19T14:41:59.252Z,10.50
2019-02-19T14:45:00.894Z,10.67
2019-02-19T14:47:56.682Z,11.13
2019-02-19T14:50:55.237Z,11.40
2019-02-19T14:54:00.594Z,11.30
2019-02-19T14:56:55.875Z,10.97
2019-02-19T14:59:45.195Z,11.13
2019-02-19T15:02:51.416Z,11.13
2019-02-19T15:05:46.961Z,10.70
2019-02-19T15:08:54.515Z,10.97
2019-02-19T15:11:46.944Z,10.50
2019-02-19T15:14:42.154Z,10.67
2019-02-19T15:17:43.801Z,11.10
2019-02-19T15:20:49.512Z,11.07
2019-02-19T15:23:55.702Z,10.63
2019-02-19T15:26:45.383Z,10.37
2019-02-19T15:29:40.981Z,9.97
2019-02-19T15:32:46.889Z,11.17
2019-02-19T15:35:42.785Z,11.40
2019-02-19T15:38:49.218Z,10.97
2019-02-19T15:41:54.569Z,9.93
2019-02-19T15:44:43.656Z,11.17
2019-02-19T15:47:33.046Z,11.17
2019-02-19T15:50:39.065Z,10.77
2019-02-19T15:53:46.626Z,10.20
2019-02-19T15:56:51.477Z,10.77
2019-02-19T16:00:25.758Z,10.83
2019-02-19T16:03:18.220Z,10.17
2019-02-19T16:06:24.162Z,10.90
2019-02-19T16:09:13.441Z,11.80
2019-02-19T16:12:09.767Z,10.03
2019-02-19T16:15:11.136Z,11.47
2019-02-19T16:18:01.501Z,10.93
2019-02-19T16:20:57.060Z,11.40
2019-02-19T16:23:47.068Z,11.37
2019-02-19T16:26:39.306Z,12.33
2019-02-19T16:29:40.832Z,12.03
2019-02-19T16:32:30.640Z,11.30
2019-02-19T16:35:20.440Z,11.07
2019-02-19T16:38:27.712Z,11.63
2019-02-19T16:41:17.572Z,12.30
2019-02-19T16:44:18.885Z,11.37
2019-02-19T16:47:08.272Z,10.77
2019-02-19T16:50:07.822Z,11.77
2019-02-19T16:52:51.871Z,11.97
2019-02-19T16:55:50.230Z,24.00
2019-02-19T16:58:51.952Z,12.13
2019-02-19T17:01:43.736Z,11.53
2019-02-19T17:04:42.397Z,10.13
2019-02-19T17:07:32.390Z,10.73
2019-02-19T17:10:38.610Z,14.30
2019-02-19T17:13:28.361Z,12.27
2019-02-19T17:16:18.213Z,20.93
2019-02-19T17:19:07.860Z,11.77
2019-02-19T17:22:12.270Z,11.37
2019-02-19T17:25:18.029Z,13.50
2019-02-19T17:28:19.844Z,10.77
2019-02-19T17:31:12.426Z,12.43
2019-02-19T17:34:04.683Z,12.13
2019-02-19T17:36:54.768Z,11.43
2019-02-19T17:39:44.529Z,13.40
2019-02-19T17:42:33.908Z,11.07
2019-02-19T17:45:26.515Z,14.18
2019-02-19T17:48:21.640Z,12.53
2019-02-19T17:51:14.625Z,12.30
2019-02-19T17:54:22.044Z,12.70
2019-02-19T17:57:11.565Z,13.40
2019-02-19T18:00:07.248Z,13.80
2019-02-19T18:02:56.525Z,13.40
2019-02-19T18:05:55.628Z,12.17
2019-02-19T18:09:00.415Z,11.40
2019-02-19T18:11:50.084Z,12.23
2019-02-19T18:14:39.326Z,12.10
2019-02-19T18:17:28.935Z,12.43
2019-02-19T18:20:17.460Z,11.63
2019-02-19T18:23:05.416Z,12.57
2019-02-19T18:25:53.244Z,15.90
2019-02-19T18:28:41.272Z,13.43
2019-02-19T18:31:29.077Z,21.43
2019-02-19T18:34:16.732Z,15.90
2019-02-19T18:37:04.679Z,15.97
2019-02-19T18:39:52.513Z,14.60
2019-02-19T18:42:40.428Z,16.17
2019-02-19T18:45:28.286Z,14.13
2019-02-19T18:48:16.109Z,14.60
2019-02-19T18:51:04.191Z,14.27
2019-02-19T18:53:52.626Z,16.83
2019-02-19T18:56:40.537Z,21.70
2019-02-19T18:59:28.397Z,15.53
2019-02-19T19:02:16.252Z,17.67
2019-02-19T19:05:04.427Z,17.33
2019-02-19T19:07:52.072Z,19.17
2019-02-19T19:10:40.048Z,21.40
2019-02-19T19:13:28.038Z,21.33
2019-02-19T19:16:16.053Z,20.33
2019-02-19T19:19:03.889Z,19.43
2019-02-19T19:22:07.200Z,18.30
2019-02-19T19:24:55.468Z,19.43
2019-02-19T19:27:43.135Z,19.13
2019-02-19T19:30:30.885Z,21.23
2019-02-19T19:33:18.528Z,20.67
2019-02-19T19:36:06.736Z,21.07
2019-02-19T19:38:54.614Z,20.57
2019-02-19T19:41:42.294Z,21.57
2019-02-19T19:44:30.446Z,22.27
2019-02-19T19:47:18.172Z,24.60
2019-02-19T19:50:09.146Z,23.93
2019-02-19T19:52:56.775Z,24.70
2019-02-19T19:55:44.396Z,23.70
2019-02-19T19:58:32.335Z,24.77
2019-02-19T20:01:20.432Z,24.13
2019-02-19T20:04:08.369Z,23.27
2019-02-19T20:06:56.197Z,22.63
2019-02-19T20:09:43.905Z,25.10
2019-02-19T20:12:31.380Z,23.40
2019-02-19T20:15:19.227Z,23.27
2019-02-19T20:18:07.141Z,24.50
2019-02-19T20:20:55.157Z,24.67
2019-02-19T20:23:42.991Z,27.33
2019-02-19T20:26:30.637Z,24.27
2019-02-19T20:29:20.641Z,22.27
2019-02-19T20:32:08.601Z,21.17
2019-02-19T20:34:56.496Z,20.40
2019-02-19T20:37:53.343Z,20.03
2019-02-19T20:40:34.027Z,20.50
2019-02-19T20:43:22.065Z,20.63
2019-02-19T20:46:10.044Z,20.40
2019-02-19T20:48:57.993Z,20.80
2019-02-19T20:51:45.925Z,19.67
2019-02-19T20:54:33.904Z,17.93
2019-02-19T20:57:22.079Z,19.30
2019-02-19T21:00:17.666Z,19.30
2019-02-19T21:03:05.419Z,20.87
2019-02-19T21:05:53.279Z,20.37
2019-02-19T21:08:41.045Z,20.13
2019-02-19T21:11:28.984Z,21.97
2019-02-19T21:14:16.960Z,21.27
2019-02-19T21:17:04.900Z,21.03
2019-02-19T21:19:52.697Z,21.20
2019-02-19T21:22:40.630Z,22.07
2019-02-19T21:25:31.084Z,21.73
2019-02-19T21:28:18.648Z,22.57
2019-02-19T21:31:06.389Z,21.97
2019-02-19T21:33:54.340Z,23.03
2019-02-19T21:36:42.276Z,23.90
2019-02-19T21:39:30.392Z,20.93
2019-02-19T21:42:18.254Z,20.17
2019-02-19T21:45:14.036Z,19.93
2019-02-19T21:48:01.937Z,20.97
2019-02-19T21:50:49.848Z,20.40
2019-02-19T21:53:37.635Z,18.67
2019-02-19T21:56:25.492Z,20.03
2019-02-19T21:59:13.296Z,20.23
2019-02-19T22:02:01.120Z,19.00
2019-02-19T22:04:49.160Z,18.00
2019-02-19T22:07:37.208Z,17.20
2019-02-19T22:10:24.970Z,16.93
2019-02-19T22:13:12.897Z,18.23
2019-02-19T22:16:00.740Z,16.63
2019-02-19T22:18:48.640Z,16.90
2019-02-19T22:21:38.013Z,16.43
2019-02-19T22:24:35.300Z,15.87
2019-02-19T22:27:22.916Z,17.10
2019-02-19T22:30:10.871Z,16.23
2019-02-19T22:32:58.552Z,16.53
2019-02-19T22:35:46.680Z,16.97
2019-02-19T22:38:34.556Z,15.40
2019-02-19T22:41:22.592Z,16.30
2019-02-19T22:44:10.377Z,16.90
2019-02-19T22:46:58.503Z,18.20
2019-02-19T22:49:46.308Z,17.30
2019-02-19T22:52:34.231Z,17.37
2019-02-19T22:55:33.180Z,17.23
2019-02-19T22:58:20.764Z,17.07
2019-02-19T23:01:20.584Z,17.63
2019-02-19T23:04:08.901Z,17.73
2019-02-19T23:06:56.505Z,18.67
2019-02-19T23:09:44.253Z,17.97
2019-02-19T23:12:32.172Z,18.87
2019-02-19T23:15:20.224Z,17.70
2019-02-19T23:18:07.929Z,19.40
2019-02-19T23:20:55.860Z,20.03
2019-02-19T23:23:43.836Z,19.67
2019-02-19T23:26:31.764Z,19.67
2019-02-19T23:29:19.716Z,20.20
2019-02-19T23:32:07.621Z,21.47
2019-02-19T23:35:09.254Z,19.60
2019-02-19T23:37:57.191Z,19.30
2019-02-19T23:40:44.884Z,18.60
2019-02-19T23:43:32.850Z,20.97
2019-02-19T23:46:20.672Z,20.30
2019-02-19T23:49:08.508Z,19.77
2019-02-19T23:51:56.135Z,19.80
2019-02-19T23:54:43.804Z,18.57
2019-02-19T23:57:31.873Z,19.87
